Time;durP1;ratioP1;P1;durP2;ratioP2;P2;SDS_P1;SDS_P2;PMS_P1;PMS_P2;Temp;Humidity;BMP_temperature;BMP_pressure;BME280_temperature;BME280_humidity;BME280_pressure;Samples;Min_cycle;Max_cycle;Signal;HPM_P1;HPM_P2
2023/11/14 00:00:34;;;;;;;;;;;;;;;28.35;21.94;96719.59;5089375;28;19916;-94
2023/11/14 00:03:00;;;;;;;;;;;;;;;28.36;21.88;96706.25;5094348;28;20371;-94
2023/11/14 00:05:26;;;;;;;;;;;;;;;28.51;21.67;96704.91;5093924;28;20393;-94
2023/11/14 00:07:52;;;;;;;;;;;;;;;28.65;21.68;96692.75;5083473;28;19927;-95
2023/11/14 00:10:18;;;;;;;;;;;;;;;28.77;21.39;96701.31;5088332;28;19916;-94
2023/11/14 00:12:44;;;;;;;;;;;;;;;28.77;21.44;96701.31;5088870;28;20374;-94
2023/11/14 00:15:10;;;;;;;;;;;;;;;28.77;21.60;96695.69;5088330;28;19923;-95
2023/11/14 00:17:37;;;;;;;;;;;;;;;28.78;21.40;96688.75;5080317;28;19966;-96
2023/11/14 00:20:06;;;;;;;;;;;;;;;28.08;22.33;96693.88;5094227;28;19920;-95
2023/11/14 00:22:32;;;;;;;;;;;;;;;28.05;22.63;96687.91;5079082;28;19954;-95
2023/11/14 00:24:58;;;;;;;;;;;;;;;27.81;22.70;96686.56;5083297;28;19920;-95
2023/11/14 00:27:24;;;;;;;;;;;;;;;27.92;22.59;96686.69;5085142;28;20122;-95
2023/11/14 00:29:50;;;;;;;;;;;;;;;28.09;22.38;96682.09;5084373;28;19916;-95
2023/11/14 00:32:16;;;;;;;;;;;;;;;27.92;22.70;96676.19;5100178;28;19920;-94
2023/11/14 00:34:42;;;;;;;;;;;;;;;27.89;22.79;96680.00;5085753;28;19927;-94
2023/11/14 00:37:08;;;;;;;;;;;;;;;27.96;22.68;96675.97;5094393;28;19937;-95
2023/11/14 00:39:35;;;;;;;;;;;;;;;27.97;22.71;96664.22;5099345;28;19987;-96
2023/11/14 00:42:01;;;;;;;;;;;;;;;27.75;22.84;96647.00;5095190;28;19920;-95
2023/11/14 00:44:27;;;;;;;;;;;;;;;27.15;23.37;96642.03;5107809;28;19962;-95
2023/11/14 00:46:53;;;;;;;;;;;;;;;27.28;23.54;96630.44;5099703;28;19928;-96
2023/11/14 00:49:19;;;;;;;;;;;;;;;27.49;23.42;96626.41;5103670;28;19942;-94
2023/11/14 00:51:45;;;;;;;;;;;;;;;27.56;23.52;96628.81;5103274;28;19924;-95
2023/11/14 00:54:11;;;;;;;;;;;;;;;27.86;23.17;96627.41;5095732;28;19924;-96
2023/11/14 00:56:38;;;;;;;;;;;;;;;27.80;23.45;96640.66;5098871;28;19916;-96
2023/11/14 00:59:05;;;;;;;;;;;;;;;27.83;23.52;96639.66;5083756;28;19920;-96
2023/11/14 01:01:31;;;;;;;;;;;;;;;27.89;23.22;96643.31;5100344;28;19920;-96
2023/11/14 01:03:57;;;;;;;;;;;;;;;27.92;23.48;96647.19;5099972;28;19920;-95
2023/11/14 01:06:24;;;;;;;;;;;;;;;28.12;23.57;96652.09;5097036;28;19921;-96
2023/11/14 01:08:50;;;;;;;;;;;;;;;27.94;24.19;96656.72;5089642;28;19950;-96
2023/11/14 01:11:16;;;;;;;;;;;;;;;27.42;25.32;96657.84;5108455;28;19917;-96
2023/11/14 01:13:42;;;;;;;;;;;;;;;27.49;25.08;96663.06;5092579;28;19924;-95
2023/11/14 01:16:12;;;;;;;;;;;;;;;27.28;25.43;96673.47;5093550;28;19968;-95
2023/11/14 01:18:38;;;;;;;;;;;;;;;27.02;26.69;96703.56;5093782;28;19917;-95
2023/11/14 01:21:04;;;;;;;;;;;;;;;25.96;28.23;96705.56;5100246;28;19971;-96
2023/11/14 01:23:31;;;;;;;;;;;;;;;26.29;28.20;96720.34;5095722;28;19943;-96
2023/11/14 01:25:57;;;;;;;;;;;;;;;26.30;28.19;96712.69;5088148;28;19927;-95
2023/11/14 01:28:23;;;;;;;;;;;;;;;26.54;28.47;96705.75;5091657;28;19920;-95
2023/11/14 01:30:49;;;;;;;;;;;;;;;27.46;27.25;96711.97;5090931;28;19920;-95
2023/11/14 01:33:15;;;;;;;;;;;;;;;27.76;26.86;96712.66;5091301;28;20272;-95
2023/11/14 01:35:41;;;;;;;;;;;;;;;27.66;27.08;96725.31;5081467;28;20344;-94
2023/11/14 01:38:07;;;;;;;;;;;;;;;25.85;30.34;96756.75;5083600;28;19970;-94
2023/11/14 01:40:33;;;;;;;;;;;;;;;23.27;34.76;96805.84;5107140;28;19920;-92
2023/11/14 01:43:02;;;;;;;;;;;;;;;21.48;37.88;96798.97;5085372;28;19920;-93
2023/11/14 01:45:28;;;;;;;;;;;;;;;21.86;37.14;96822.13;5091895;28;19927;-94
2023/11/14 01:47:55;;;;;;;;;;;;;;;21.45;37.41;96819.44;5087710;28;19924;-93
2023/11/14 01:50:22;;;;;;;;;;;;;;;22.95;34.37;96809.09;5087429;28;20405;-93
2023/11/14 01:52:49;;;;;;;;;;;;;;;24.63;31.55;96787.38;5080266;28;19920;-93
2023/11/14 01:55:16;;;;;;;;;;;;;;;25.43;29.92;96795.34;5084762;28;19950;-94
2023/11/14 01:57:42;;;;;;;;;;;;;;;26.46;28.33;96796.69;5090850;28;19973;-96
2023/11/14 02:00:11;;;;;;;;;;;;;;;26.83;27.62;96809.22;5098084;28;20423;-95
2023/11/14 02:02:38;;;;;;;;;;;;;;;26.87;27.63;96821.06;5105453;28;19934;-96
2023/11/14 02:05:04;;;;;;;;;;;;;;;27.04;27.46;96810.13;5100861;28;20441;-95
2023/11/14 02:07:31;;;;;;;;;;;;;;;27.76;26.46;96795.22;5091147;28;20372;-94
2023/11/14 02:09:57;;;;;;;;;;;;;;;28.32;25.65;96753.69;5093836;28;19939;-95
2023/11/14 02:12:23;;;;;;;;;;;;;;;28.18;25.77;96763.78;5095898;28;20421;-95
2023/11/14 02:14:49;;;;;;;;;;;;;;;28.08;26.01;96784.19;5097883;28;19926;-94
2023/11/14 02:17:18;;;;;;;;;;;;;;;27.76;26.49;96794.44;5100321;28;19916;-96
2023/11/14 02:19:44;;;;;;;;;;;;;;;27.80;26.65;96783.72;5108070;28;19926;-96
2023/11/14 02:22:10;;;;;;;;;;;;;;;28.29;26.14;96751.84;5113461;28;19924;-96
2023/11/14 02:24:38;;;;;;;;;;;;;;;28.58;25.33;96749.66;5105791;28;19921;-94
2023/11/14 02:27:07;;;;;;;;;;;;;;;28.74;25.12;96766.03;5096718;28;19916;-94
2023/11/14 02:29:35;;;;;;;;;;;;;;;28.80;25.32;96754.75;5113653;28;19983;-95
2023/11/14 02:32:01;;;;;;;;;;;;;;;29.13;25.01;96749.44;5109100;28;19927;-96
2023/11/14 02:34:28;;;;;;;;;;;;;;;29.13;24.93;96752.28;5113300;28;19907;-96
2023/11/14 02:36:54;;;;;;;;;;;;;;;28.63;25.61;96756.66;5097714;28;19904;-96
2023/11/14 02:39:20;;;;;;;;;;;;;;;28.87;25.28;96782.59;5114340;28;19939;-95
2023/11/14 02:41:46;;;;;;;;;;;;;;;29.22;24.84;96777.56;5098770;28;19924;-95
2023/11/14 02:44:13;;;;;;;;;;;;;;;29.25;24.96;96785.06;5105810;28;19930;-95
2023/11/14 02:46:39;;;;;;;;;;;;;;;28.99;25.26;96795.56;5080866;28;19938;-95
2023/11/14 02:49:25;;;;;;;;;;;;;;;29.05;25.11;96812.59;5095223;28;19924;-95
2023/11/14 02:51:52;;;;;;;;;;;;;;;29.20;25.13;96782.16;5100236;28;20300;-96
2023/11/14 02:54:18;;;;;;;;;;;;;;;29.11;25.36;96754.03;5089572;28;20361;-96
2023/11/14 02:56:44;;;;;;;;;;;;;;;29.07;25.09;96742.97;5092156;28;20280;-96
2023/11/14 02:59:11;;;;;;;;;;;;;;;28.97;25.27;96692.78;5091309;28;19921;-95
2023/11/14 03:01:38;;;;;;;;;;;;;;;28.70;25.45;96694.06;5084391;28;19961;-96
2023/11/14 03:04:04;;;;;;;;;;;;;;;28.46;25.78;96750.00;5084012;28;19920;-96
2023/11/14 03:06:30;;;;;;;;;;;;;;;28.91;25.11;96766.19;5086171;28;20000;-94
2023/11/14 03:08:56;;;;;;;;;;;;;;;28.84;25.05;96748.91;5089260;28;19920;-96
2023/11/14 03:11:22;;;;;;;;;;;;;;;28.72;25.35;96674.56;5093016;28;19920;-95
2023/11/14 03:13:48;;;;;;;;;;;;;;;28.67;25.24;96683.75;5086986;28;19925;-95
2023/11/14 03:16:14;;;;;;;;;;;;;;;28.63;25.21;96708.63;5093446;28;19927;-95
2023/11/14 03:18:40;;;;;;;;;;;;;;;28.52;25.30;96697.97;5103970;28;19920;-95
2023/11/14 03:21:06;;;;;;;;;;;;;;;28.37;25.13;96699.34;5083625;28;19932;-95
2023/11/14 03:23:32;;;;;;;;;;;;;;;28.12;25.36;96706.50;5110234;28;20333;-96
2023/11/14 03:25:58;;;;;;;;;;;;;;;27.83;25.75;96710.19;5113328;28;19939;-96
2023/11/14 03:28:24;;;;;;;;;;;;;;;27.91;25.56;96716.19;5112374;28;19920;-95
2023/11/14 03:30:51;;;;;;;;;;;;;;;28.21;25.26;96739.44;5108551;28;20447;-95
2023/11/14 03:33:17;;;;;;;;;;;;;;;27.97;25.27;96740.38;5121342;28;19924;-95
2023/11/14 03:35:43;;;;;;;;;;;;;;;27.63;25.92;96738.38;5114749;28;19962;-95
2023/11/14 03:38:09;;;;;;;;;;;;;;;27.40;26.38;96756.97;5098222;28;19920;-95
2023/11/14 03:40:35;;;;;;;;;;;;;;;27.94;25.72;96757.50;5096382;28;19988;-94
2023/11/14 03:43:01;;;;;;;;;;;;;;;28.21;25.24;96762.00;5106388;28;20001;-95
2023/11/14 03:45:27;;;;;;;;;;;;;;;27.71;25.91;96770.53;5107384;28;20423;-96
2023/11/14 03:47:53;;;;;;;;;;;;;;;27.42;26.39;96771.34;5094508;28;19921;-96
2023/11/14 03:50:19;;;;;;;;;;;;;;;27.82;26.15;96769.94;5109728;28;19924;-96
2023/11/14 03:52:45;;;;;;;;;;;;;;;27.89;25.95;96781.56;5108431;28;19920;-96
2023/11/14 03:55:11;;;;;;;;;;;;;;;27.84;26.01;96775.84;5137379;28;19911;-96
2023/11/14 03:57:37;;;;;;;;;;;;;;;27.85;26.04;96789.47;5138727;28;19957;-96
2023/11/14 04:00:04;;;;;;;;;;;;;;;27.95;25.92;96785.25;5105244;28;19926;-95
2023/11/14 04:02:30;;;;;;;;;;;;;;;28.31;25.67;96777.56;5105430;28;20359;-96
2023/11/14 04:04:57;;;;;;;;;;;;;;;28.70;24.99;96790.13;5103297;28;19920;-96
2023/11/14 04:07:23;;;;;;;;;;;;;;;28.77;24.99;96797.38;5116569;28;19987;-95
2023/11/14 04:09:49;;;;;;;;;;;;;;;28.90;24.93;96786.47;5119103;28;19905;-96
2023/11/14 04:12:15;;;;;;;;;;;;;;;29.03;24.43;96798.97;5114795;28;19908;-96
2023/11/14 04:14:41;;;;;;;;;;;;;;;29.07;24.38;96810.03;5112002;28;19920;-96
2023/11/14 04:17:07;;;;;;;;;;;;;;;29.13;24.19;96805.97;5098293;28;19904;-96
2023/11/14 04:19:34;;;;;;;;;;;;;;;29.05;24.25;96799.25;5098654;28;19917;-96
2023/11/14 04:22:00;;;;;;;;;;;;;;;29.13;24.02;96805.97;5099186;28;19967;-94
2023/11/14 04:24:26;;;;;;;;;;;;;;;28.90;24.20;96809.06;5091439;28;19917;-95
2023/11/14 04:26:52;;;;;;;;;;;;;;;28.69;24.59;96805.50;5093552;28;19920;-95
2023/11/14 04:29:18;;;;;;;;;;;;;;;28.78;24.24;96802.53;5113605;28;20348;-95
2023/11/14 04:31:44;;;;;;;;;;;;;;;28.96;24.04;96807.88;5109415;28;19966;-95
2023/11/14 04:34:10;;;;;;;;;;;;;;;28.82;23.73;96813.63;5112388;28;19927;-95
2023/11/14 04:36:36;;;;;;;;;;;;;;;28.70;24.15;96807.06;5099702;28;19925;-95
2023/11/14 04:39:04;;;;;;;;;;;;;;;28.48;24.48;96806.75;5096774;28;19921;-96
2023/11/14 04:41:30;;;;;;;;;;;;;;;28.46;24.20;96810.09;5099069;28;19935;-96
2023/11/14 04:43:56;;;;;;;;;;;;;;;28.46;24.73;96826.25;5111755;28;19920;-95
2023/11/14 04:46:23;;;;;;;;;;;;;;;28.58;24.27;96808.94;5103042;28;19920;-94
2023/11/14 04:48:49;;;;;;;;;;;;;;;28.37;24.80;96823.56;5089776;28;19916;-94
2023/11/14 04:51:15;;;;;;;;;;;;;;;28.37;24.83;96824.34;5099170;28;20373;-95
2023/11/14 04:53:41;;;;;;;;;;;;;;;28.57;24.62;96829.97;5100377;28;20248;-95
2023/11/14 04:56:07;;;;;;;;;;;;;;;28.59;24.39;96835.94;5080507;28;19921;-95
2023/11/14 04:58:33;;;;;;;;;;;;;;;28.78;24.16;96836.44;5098035;28;19952;-96
2023/11/14 05:01:00;;;;;;;;;;;;;;;28.26;25.22;96841.13;5114685;28;19913;-95
2023/11/14 05:03:26;;;;;;;;;;;;;;;28.37;24.69;96852.56;5102686;28;19991;-96
2023/11/14 05:05:52;;;;;;;;;;;;;;;28.56;24.68;96853.88;5116301;28;19920;-96
2023/11/14 05:08:18;;;;;;;;;;;;;;;28.70;24.67;96853.03;5108898;28;20399;-95
2023/11/14 05:10:44;;;;;;;;;;;;;;;28.68;24.58;96861.22;5105002;28;19924;-95
2023/11/14 05:13:10;;;;;;;;;;;;;;;28.64;24.60;96869.13;5110927;28;19920;-95
2023/11/14 05:15:36;;;;;;;;;;;;;;;28.62;24.77;96882.19;5092096;28;19920;-95
2023/11/14 05:18:02;;;;;;;;;;;;;;;28.41;25.06;96887.03;5097675;28;19963;-96
2023/11/14 05:20:28;;;;;;;;;;;;;;;28.28;25.14;96894.28;5108410;28;20015;-96
2023/11/14 05:22:55;;;;;;;;;;;;;;;27.77;26.06;96906.00;5091556;28;19924;-93
2023/11/14 05:25:21;;;;;;;;;;;;;;;27.30;26.37;96904.13;5089694;28;19920;-95
2023/11/14 05:27:49;;;;;;;;;;;;;;;27.27;26.77;96905.06;5093011;28;19927;-93
2023/11/14 05:30:16;;;;;;;;;;;;;;;27.60;26.18;96902.13;5082294;28;20363;-95
2023/11/14 05:32:42;;;;;;;;;;;;;;;27.81;25.84;96910.19;5089598;28;19921;-93
2023/11/14 05:35:09;;;;;;;;;;;;;;;28.26;25.05;96913.75;5103868;28;19987;-95
2023/11/14 05:37:35;;;;;;;;;;;;;;;28.45;24.69;96917.88;5107462;28;19939;-95
2023/11/14 05:40:02;;;;;;;;;;;;;;;28.54;24.35;96912.88;5099881;28;19924;-93
2023/11/14 05:42:28;;;;;;;;;;;;;;;28.47;24.40;96913.28;5109595;28;20091;-95
2023/11/14 05:44:54;;;;;;;;;;;;;;;28.63;24.18;96906.34;5100913;28;19923;-93
2023/11/14 05:47:20;;;;;;;;;;;;;;;28.74;24.01;96917.78;5086529;28;19953;-90
2023/11/14 05:49:46;;;;;;;;;;;;;;;28.70;24.00;96920.06;5091141;28;19932;-92
2023/11/14 05:52:12;;;;;;;;;;;;;;;28.44;24.68;96919.94;5097427;28;19928;-96
2023/11/14 05:54:38;;;;;;;;;;;;;;;28.57;24.35;96923.19;5085073;28;20434;-93
2023/11/14 05:57:04;;;;;;;;;;;;;;;28.71;24.38;96921.59;5096096;28;19912;-93
2023/11/14 05:59:30;;;;;;;;;;;;;;;28.68;24.19;96931.84;5092914;28;19921;-93
2023/11/14 06:01:56;;;;;;;;;;;;;;;28.71;24.08;96933.69;5096563;28;19920;-93
2023/11/14 06:04:22;;;;;;;;;;;;;;;28.80;23.93;96946.88;5096776;28;19920;-96
2023/11/14 06:06:48;;;;;;;;;;;;;;;28.78;23.94;96932.47;5095558;28;20394;-95
2023/11/14 06:09:14;;;;;;;;;;;;;;;28.80;24.07;96935.59;5097773;28;20438;-96
2023/11/14 06:11:40;;;;;;;;;;;;;;;28.77;23.95;96933.00;5098490;28;19943;-94
2023/11/14 06:14:06;;;;;;;;;;;;;;;28.25;24.57;96944.03;5097213;28;19916;-94
2023/11/14 06:16:33;;;;;;;;;;;;;;;27.76;25.22;96955.22;5097406;28;20359;-93
2023/11/14 06:18:59;;;;;;;;;;;;;;;28.06;24.89;96957.56;5096281;28;20010;-94
2023/11/14 06:21:25;;;;;;;;;;;;;;;27.18;26.17;96962.31;5078272;28;19982;-96
2023/11/14 06:23:53;;;;;;;;;;;;;;;27.21;26.40;96966.97;5093009;28;19955;-94
2023/11/14 06:26:19;;;;;;;;;;;;;;;27.00;26.63;96973.69;5096285;28;19954;-94
2023/11/14 06:28:45;;;;;;;;;;;;;;;27.32;26.21;96961.56;5096361;28;20413;-94
2023/11/14 06:31:11;;;;;;;;;;;;;;;27.02;27.05;96982.47;5095683;28;20407;-94
2023/11/14 06:33:37;;;;;;;;;;;;;;;26.97;27.11;96985.16;5095954;28;19949;-95
2023/11/14 06:36:04;;;;;;;;;;;;;;;27.04;27.09;96996.84;5095624;28;20348;-93
2023/11/14 06:38:30;;;;;;;;;;;;;;;27.08;26.94;96983.34;5079031;28;21534;-92
2023/11/14 06:40:56;;;;;;;;;;;;;;;27.29;26.52;96985.06;5087894;28;19921;-95
2023/11/14 06:43:22;;;;;;;;;;;;;;;27.64;26.23;96995.75;5086431;28;19994;-94
2023/11/14 06:45:49;;;;;;;;;;;;;;;27.54;26.24;97000.69;5084407;28;19963;-94
2023/11/14 06:48:16;;;;;;;;;;;;;;;27.96;25.70;97008.91;5085727;28;19924;-95
2023/11/14 06:50:42;;;;;;;;;;;;;;;27.88;25.86;97019.03;5081815;28;19925;-92
2023/11/14 06:53:08;;;;;;;;;;;;;;;27.32;26.52;97011.53;5082120;28;19931;-94
2023/11/14 06:55:34;;;;;;;;;;;;;;;27.42;26.76;97021.50;5091159;28;20024;-93
2023/11/14 06:58:00;;;;;;;;;;;;;;;27.69;26.64;97024.06;5088690;28;20330;-93
2023/11/14 07:00:26;;;;;;;;;;;;;;;27.08;27.31;97036.91;5085977;28;19920;-91
2023/11/14 07:02:52;;;;;;;;;;;;;;;26.93;27.33;97027.63;5086255;28;19942;-93
2023/11/14 07:05:18;;;;;;;;;;;;;;;26.88;28.08;97033.13;5095862;28;19926;-92
2023/11/14 07:07:47;;;;;;;;;;;;;;;25.88;29.32;97036.25;5095806;28;19920;-92
2023/11/14 07:10:13;;;;;;;;;;;;;;;26.30;28.50;97031.44;5090716;28;19960;-92
2023/11/14 07:12:40;;;;;;;;;;;;;;;26.85;27.98;97034.84;5090642;28;19927;-94
2023/11/14 07:15:06;;;;;;;;;;;;;;;27.25;27.19;97035.22;5089788;28;19917;-94
2023/11/14 07:17:32;;;;;;;;;;;;;;;26.85;27.26;97042.50;5085405;28;20394;-95
2023/11/14 07:19:58;;;;;;;;;;;;;;;27.10;26.98;97045.66;5097342;28;19916;-93
2023/11/14 07:22:25;;;;;;;;;;;;;;;27.13;26.99;97038.28;5098374;28;19928;-95
2023/11/14 07:24:52;;;;;;;;;;;;;;;26.72;27.44;97039.91;5086652;28;19966;-93
2023/11/14 07:27:18;;;;;;;;;;;;;;;27.21;27.12;97048.69;5086905;28;19932;-93
2023/11/14 07:29:45;;;;;;;;;;;;;;;26.53;27.85;97053.28;5087687;28;19942;-93
2023/11/14 07:32:11;;;;;;;;;;;;;;;26.57;27.84;97048.25;5096159;28;19991;-92
2023/11/14 07:34:37;;;;;;;;;;;;;;;25.70;28.65;97045.47;5099200;28;19943;-94
2023/11/14 07:37:03;;;;;;;;;;;;;;;25.36;29.07;97035.31;5092761;28;20016;-93
2023/11/14 07:39:29;;;;;;;;;;;;;;;26.04;28.53;97039.47;5094173;28;19920;-95
2023/11/14 07:41:56;;;;;;;;;;;;;;;26.31;28.34;97038.66;5091670;28;19972;-94
2023/11/14 07:44:23;;;;;;;;;;;;;;;26.19;28.18;97038.84;5084258;28;19928;-95
2023/11/14 07:46:49;;;;;;;;;;;;;;;26.28;28.09;97039.59;5090085;28;20349;-95
2023/11/14 07:49:15;;;;;;;;;;;;;;;26.36;27.41;97025.97;5081311;28;20427;-94
2023/11/14 07:51:42;;;;;;;;;;;;;;;26.45;27.20;97035.16;5087604;28;20018;-95
2023/11/14 07:54:08;;;;;;;;;;;;;;;26.02;28.80;97032.78;5084018;28;20410;-95
2023/11/14 07:56:37;;;;;;;;;;;;;;;26.66;28.19;97045.41;5092789;28;19936;-95
2023/11/14 07:59:03;;;;;;;;;;;;;;;27.24;26.37;97046.97;5085145;28;19920;-93
2023/11/14 08:01:29;;;;;;;;;;;;;;;25.82;28.28;97041.72;5082954;28;19924;-95
2023/11/14 08:03:55;;;;;;;;;;;;;;;26.07;27.79;97049.78;5090074;28;19924;-96
2023/11/14 08:06:23;;;;;;;;;;;;;;;27.14;26.59;97051.13;5096940;28;19978;-96
2023/11/14 08:08:49;;;;;;;;;;;;;;;26.02;28.46;97050.41;5094782;28;19915;-94
2023/11/14 08:11:16;;;;;;;;;;;;;;;25.11;28.87;97060.09;5098745;28;19928;-96
2023/11/14 08:13:42;;;;;;;;;;;;;;;25.81;27.73;97045.00;5102414;28;19923;-95
2023/11/14 08:16:08;;;;;;;;;;;;;;;25.61;30.94;97061.56;5099735;28;19946;-96
2023/11/14 08:18:34;;;;;;;;;;;;;;;24.86;28.98;97057.53;5098411;28;19924;-94
2023/11/14 08:21:00;;;;;;;;;;;;;;;24.78;29.17;97071.09;5082172;28;19927;-96
2023/11/14 08:23:28;;;;;;;;;;;;;;;25.21;28.75;97054.00;5080636;28;19927;-95
2023/11/14 08:25:55;;;;;;;;;;;;;;;26.02;27.57;97064.47;5075341;28;19917;-96
2023/11/14 08:28:21;;;;;;;;;;;;;;;25.75;28.10;97064.53;5091103;28;19920;-96
2023/11/14 08:30:47;;;;;;;;;;;;;;;26.12;27.24;97072.94;5107722;28;19922;-95
2023/11/14 08:33:14;;;;;;;;;;;;;;;26.05;27.30;97066.34;5104781;28;19971;-96
2023/11/14 08:35:43;;;;;;;;;;;;;;;26.54;27.07;97059.66;5079220;28;19920;-95
2023/11/14 08:38:09;;;;;;;;;;;;;;;26.72;26.56;97059.63;5105434;28;19916;-96
2023/11/14 08:40:35;;;;;;;;;;;;;;;26.94;26.29;97070.63;5102056;28;20135;-95
2023/11/14 08:43:01;;;;;;;;;;;;;;;27.66;24.95;97058.88;5106541;28;19951;-96
2023/11/14 08:45:29;;;;;;;;;;;;;;;27.13;26.50;97052.38;5108880;28;19916;-96
2023/11/14 08:47:56;;;;;;;;;;;;;;;27.00;25.80;97044.13;5091328;28;19945;-95
2023/11/14 08:50:23;;;;;;;;;;;;;;;26.14;27.84;97034.63;5098304;28;19928;-95
2023/11/14 08:52:49;;;;;;;;;;;;;;;26.22;26.17;97038.69;5091804;28;19974;-94
2023/11/14 08:55:15;;;;;;;;;;;;;;;25.37;27.10;97052.94;5089596;28;19920;-96
2023/11/14 08:57:41;;;;;;;;;;;;;;;26.25;27.46;97057.44;5096086;28;19920;-96
2023/11/14 09:00:10;;;;;;;;;;;;;;;26.53;25.98;97053.28;5103477;28;19926;-96
2023/11/14 09:02:36;;;;;;;;;;;;;;;26.97;25.42;97070.47;5096455;28;20393;-96
2023/11/14 09:05:03;;;;;;;;;;;;;;;26.11;26.70;97074.19;5098547;28;19917;-96
2023/11/14 09:07:29;;;;;;;;;;;;;;;26.16;26.19;97077.16;5103698;28;20307;-96
2023/11/14 09:09:55;;;;;;;;;;;;;;;26.87;25.37;97063.31;5107231;28;19924;-96
2023/11/14 09:12:21;;;;;;;;;;;;;;;26.56;25.39;97069.22;5075061;28;20445;-96
2023/11/14 09:14:47;;;;;;;;;;;;;;;26.96;24.96;97057.63;5102784;28;19928;-96
2023/11/14 09:17:13;;;;;;;;;;;;;;;26.71;25.60;97055.22;5099287;28;19953;-96
2023/11/14 09:19:39;;;;;;;;;;;;;;;27.74;24.74;97071.34;5089455;28;20380;-95
2023/11/14 09:22:05;;;;;;;;;;;;;;;28.56;23.26;97067.72;5098174;28;19934;-96
2023/11/14 09:24:31;;;;;;;;;;;;;;;28.30;23.74;97070.38;5099000;28;19923;-96
2023/11/14 09:26:57;;;;;;;;;;;;;;;27.46;24.55;97066.41;5102306;28;19941;-96
2023/11/14 09:29:24;;;;;;;;;;;;;;;27.84;23.76;97078.47;5115361;28;20025;-96
2023/11/14 09:31:50;;;;;;;;;;;;;;;28.68;23.47;97075.16;5114627;28;19916;-96
2023/11/14 09:34:16;;;;;;;;;;;;;;;28.72;23.06;97078.53;5116128;28;19976;-94
2023/11/14 09:36:42;;;;;;;;;;;;;;;29.19;23.04;97066.94;5115883;28;19919;-95
2023/11/14 09:39:08;;;;;;;;;;;;;;;29.41;22.97;97069.28;5116561;28;19916;-96
2023/11/14 09:41:34;;;;;;;;;;;;;;;29.56;22.41;97067.16;5092394;28;19916;-96
2023/11/14 09:44:01;;;;;;;;;;;;;;;29.52;22.11;97066.63;5111544;28;19924;-96
2023/11/14 09:46:31;;;;;;;;;;;;;;;29.77;22.02;97067.97;5110053;28;19959;-96
2023/11/14 09:48:57;;;;;;;;;;;;;;;29.64;21.72;97065.44;5103732;28;20420;-95
2023/11/14 09:51:24;;;;;;;;;;;;;;;29.49;21.75;97067.59;5104049;28;20325;-95
2023/11/14 09:53:51;;;;;;;;;;;;;;;28.81;22.93;97072.78;5101444;28;20368;-96
2023/11/14 09:56:18;;;;;;;;;;;;;;;28.86;23.22;97083.38;5097481;28;19912;-95
2023/11/14 09:58:44;;;;;;;;;;;;;;;28.84;22.93;97079.50;5108671;28;19924;-96
2023/11/14 10:01:11;;;;;;;;;;;;;;;28.92;22.15;97080.63;5109602;28;20010;-96
2023/11/14 10:03:37;;;;;;;;;;;;;;;28.92;22.48;97086.28;5101390;28;19928;-96
2023/11/14 10:06:03;;;;;;;;;;;;;;;28.67;22.85;97088.50;5101654;28;20020;-96
2023/11/14 10:08:30;;;;;;;;;;;;;;;29.53;21.95;97075.84;5105925;28;19915;-96
2023/11/14 10:11:02;;;;;;;;;;;;;;;28.71;22.98;97068.50;5110215;28;19924;-96
2023/11/14 10:13:28;;;;;;;;;;;;;;;29.47;22.05;97075.03;5087167;28;19938;-96
2023/11/14 10:15:54;;;;;;;;;;;;;;;29.03;22.45;97078.00;5095833;28;19921;-95
2023/11/14 10:18:30;;;;;;;;;;;;;;;28.55;22.47;97080.28;5097856;28;20007;-93
2023/11/14 10:20:56;;;;;;;;;;;;;;;29.09;22.22;97073.19;5086536;28;20391;-96
2023/11/14 10:23:34;;;;;;;;;;;;;;;28.11;22.79;97056.94;5103865;28;19946;-94
2023/11/14 10:26:04;;;;;;;;;;;;;;;27.04;24.81;97069.31;5087541;28;19920;-95
2023/11/14 10:28:30;;;;;;;;;;;;;;;28.51;23.40;97065.59;5090020;28;19928;-91
2023/11/14 10:30:59;;;;;;;;;;;;;;;27.06;24.36;97055.53;5093467;28;19959;-95
2023/11/14 10:33:31;;;;;;;;;;;;;;;26.54;28.00;97071.72;5099820;28;19923;-96
2023/11/14 10:36:00;;;;;;;;;;;;;;;26.21;24.96;97070.13;5096928;28;19994;-96
2023/11/14 10:38:27;;;;;;;;;;;;;;;26.29;29.51;97069.31;5103858;28;19916;-96
2023/11/14 10:40:54;;;;;;;;;;;;;;;26.46;24.56;97066.91;5100454;28;19924;-96
2023/11/14 10:43:26;;;;;;;;;;;;;;;26.69;29.12;97050.09;5093758;28;19928;-96
2023/11/14 10:45:55;;;;;;;;;;;;;;;26.42;24.01;97075.50;5101391;28;19931;-96
2023/11/14 10:48:22;;;;;;;;;;;;;;;25.72;26.51;97078.75;5096809;28;20362;-95
2023/11/14 10:50:49;;;;;;;;;;;;;;;25.59;28.11;97069.69;5103835;28;19924;-95
2023/11/14 10:53:16;;;;;;;;;;;;;;;25.36;25.09;97065.44;5099230;28;19947;-95
2023/11/14 10:55:46;;;;;;;;;;;;;;;25.60;26.39;97063.56;5105108;28;19923;-96
2023/11/14 10:58:13;;;;;;;;;;;;;;;25.31;24.94;97080.88;5106370;28;19916;-96
2023/11/14 11:00:40;;;;;;;;;;;;;;;25.58;25.45;97073.75;5101432;28;19969;-96
2023/11/14 11:03:07;;;;;;;;;;;;;;;26.11;24.50;97071.38;5087186;28;19916;-96
2023/11/14 11:05:33;;;;;;;;;;;;;;;25.82;29.90;97086.72;5086863;28;19995;-95
2023/11/14 11:08:02;;;;;;;;;;;;;;;26.08;24.76;97087.94;5107296;28;20003;-96
2023/11/14 11:10:30;;;;;;;;;;;;;;;26.29;24.19;97099.47;5108477;28;19916;-96
2023/11/14 11:12:57;;;;;;;;;;;;;;;27.28;23.48;97081.41;5102889;28;20006;-95
2023/11/14 11:15:24;;;;;;;;;;;;;;;28.08;21.75;97070.75;5101198;28;19923;-96
2023/11/14 11:17:58;;;;;;;;;;;;;;;28.35;21.47;97083.03;5108658;28;19916;-95
2023/11/14 11:20:26;;;;;;;;;;;;;;;27.24;22.84;97092.84;5099222;28;20296;-95
2023/11/14 11:23:03;;;;;;;;;;;;;;;27.35;22.50;97092.31;5108579;28;20006;-96
2023/11/14 11:25:29;;;;;;;;;;;;;;;27.43;23.10;97107.63;5102450;28;20019;-96
2023/11/14 11:27:55;;;;;;;;;;;;;;;25.42;26.12;97081.19;5114649;28;19969;-96
2023/11/14 11:30:23;;;;;;;;;;;;;;;24.70;24.86;97093.03;5118925;28;20356;-96
2023/11/14 11:32:55;;;;;;;;;;;;;;;25.40;25.57;97066.84;5119691;28;19962;-94
2023/11/14 11:35:22;;;;;;;;;;;;;;;26.15;23.42;97074.81;5119121;28;19915;-96
2023/11/14 11:37:53;;;;;;;;;;;;;;;25.38;24.11;97077.78;5120230;28;19916;-96
2023/11/14 11:40:25;;;;;;;;;;;;;;;25.34;24.29;97077.13;5113033;28;20391;-94
2023/11/14 11:42:52;;;;;;;;;;;;;;;25.32;23.92;97082.44;5096745;28;19916;-93
2023/11/14 11:45:27;;;;;;;;;;;;;;;26.14;24.76;97090.91;5082084;28;19917;-95
2023/11/14 11:47:56;;;;;;;;;;;;;;;26.46;22.30;97076.16;5075774;28;19916;-91
2023/11/14 11:50:26;;;;;;;;;;;;;;;26.51;22.74;97080.34;5081084;28;19931;-90
2023/11/14 11:53:01;;;;;;;;;;;;;;;26.11;23.41;97088.25;5094339;28;19920;-95
2023/11/14 11:55:28;;;;;;;;;;;;;;;27.18;22.19;97088.34;5093464;28;20010;-92
2023/11/14 11:58:02;;;;;;;;;;;;;;;26.72;22.33;97076.50;5095305;28;19916;-94
2023/11/14 12:00:29;;;;;;;;;;;;;;;26.60;22.75;97092.38;5090989;28;19926;-93
2023/11/14 12:02:57;;;;;;;;;;;;;;;27.28;22.25;97082.16;5097306;28;19919;-90
2023/11/14 12:05:24;;;;;;;;;;;;;;;27.01;21.78;97082.34;5115287;28;19922;-89
2023/11/14 12:07:51;;;;;;;;;;;;;;;26.53;22.14;97081.44;5108687;28;19920;-92
2023/11/14 12:10:17;;;;;;;;;;;;;;;27.93;21.02;97088.91;5094362;28;19990;-90
2023/11/14 12:12:44;;;;;;;;;;;;;;;27.13;21.81;97078.50;5094749;28;19923;-89
2023/11/14 12:15:16;;;;;;;;;;;;;;;26.99;21.64;97058.72;5093651;28;19920;-90
2023/11/14 12:17:48;;;;;;;;;;;;;;;27.29;21.72;97064.00;5090116;28;19927;-91
2023/11/14 12:20:14;;;;;;;;;;;;;;;27.15;21.91;97078.81;5093943;28;19924;-91
2023/11/14 12:22:42;;;;;;;;;;;;;;;26.53;22.65;97077.84;5092618;28;19997;-91
2023/11/14 12:25:09;;;;;;;;;;;;;;;26.81;22.61;97084.16;5093530;28;20379;-92
2023/11/14 12:27:35;;;;;;;;;;;;;;;26.53;23.39;97089.88;5094452;28;20003;-92
2023/11/14 12:30:05;;;;;;;;;;;;;;;26.29;23.00;97099.47;5093887;28;19920;-90
2023/11/14 12:32:31;;;;;;;;;;;;;;;26.28;22.34;97067.72;5094114;28;19989;-92
2023/11/14 12:34:58;;;;;;;;;;;;;;;26.21;22.65;97084.94;5092280;28;19920;-92
2023/11/14 12:37:24;;;;;;;;;;;;;;;26.09;24.05;97091.53;5093526;28;19912;-92
2023/11/14 12:40:03;;;;;;;;;;;;;;;26.68;22.24;97087.94;5093494;28;19920;-92
2023/11/14 12:42:32;;;;;;;;;;;;;;;26.96;22.31;97085.78;5088791;28;19932;-92
2023/11/14 12:44:59;;;;;;;;;;;;;;;27.90;22.40;97099.13;5098973;28;20394;-91